createdAt,value
2019-03-23T00:01:10.243Z,29.30
2019-03-23T00:03:39.600Z,29.77
2019-03-23T00:06:11.037Z,30.12
2019-03-23T00:08:40.326Z,30.32
2019-03-23T00:11:09.704Z,31.65
2019-03-23T00:13:39.030Z,30.45
2019-03-23T00:16:11.163Z,32.67
2019-03-23T00:18:40.545Z,31.85
2019-03-23T00:21:09.856Z,33.50
2019-03-23T00:23:39.225Z,33.55
2019-03-23T00:26:13.343Z,35.33
2019-03-23T00:28:42.566Z,36.83
2019-03-23T00:31:11.887Z,35.90
2019-03-23T00:33:41.265Z,34.70
2019-03-23T00:36:10.567Z,35.10
2019-03-23T00:38:39.901Z,36.98
2019-03-23T00:41:09.242Z,37.33
2019-03-23T00:43:38.557Z,36.15
2019-03-23T00:46:07.865Z,35.30
2019-03-23T00:48:37.235Z,36.03
2019-03-23T00:51:06.545Z,35.88
2019-03-23T00:53:35.862Z,35.33
2019-03-23T00:56:05.215Z,35.40
2019-03-23T00:58:34.515Z,35.55
2019-03-23T01:01:03.820Z,35.90
2019-03-23T01:03:33.181Z,36.30
2019-03-23T01:06:02.484Z,38.05
2019-03-23T01:08:31.795Z,38.75
2019-03-23T01:11:01.147Z,37.13
2019-03-23T01:13:30.460Z,36.40
2019-03-23T01:15:59.781Z,34.85
2019-03-23T01:18:29.146Z,36.48
2019-03-23T01:20:58.448Z,33.48
2019-03-23T01:23:27.773Z,32.60
2019-03-23T01:25:57.199Z,32.75
2019-03-23T01:28:26.532Z,35.17
2019-03-23T01:30:56.177Z,33.53
2019-03-23T01:33:25.524Z,34.58
2019-03-23T01:35:54.870Z,34.40
2019-03-23T01:38:24.184Z,34.75
2019-03-23T01:40:53.534Z,34.85
2019-03-23T01:43:22.835Z,37.25
2019-03-23T01:45:52.164Z,38.40
2019-03-23T01:48:21.543Z,37.38
2019-03-23T01:50:50.862Z,38.05
2019-03-23T01:53:20.459Z,41.15
2019-03-23T01:55:49.820Z,38.58
2019-03-23T01:58:19.886Z,39.33
2019-03-23T02:04:36.764Z,37.55
2019-03-23T02:07:13.697Z,40.63
2019-03-23T02:09:39.595Z,38.40
2019-03-23T02:12:08.986Z,39.35
2019-03-23T02:14:38.298Z,41.28
2019-03-23T02:17:07.632Z,40.55
2019-03-23T02:19:37.352Z,39.63
2019-03-23T02:22:08.201Z,43.20
2019-03-23T02:24:37.511Z,40.28
2019-03-23T02:27:06.926Z,41.73
2019-03-23T02:29:36.238Z,40.05
2019-03-23T02:32:05.545Z,42.35
2019-03-23T02:34:34.935Z,40.63
2019-03-23T02:37:04.604Z,40.95
2019-03-23T02:39:34.203Z,42.40
2019-03-23T02:42:03.577Z,43.35
2019-03-23T02:44:32.874Z,43.02
2019-03-23T02:47:02.233Z,40.33
2019-03-23T02:49:31.581Z,43.13
2019-03-23T02:52:00.894Z,42.40
2019-03-23T02:54:30.201Z,42.78
2019-03-23T02:56:59.556Z,42.00
2019-03-23T02:59:28.991Z,42.75
2019-03-23T03:01:58.300Z,42.48
2019-03-23T03:04:27.683Z,42.88
2019-03-23T03:06:57.326Z,42.60
2019-03-23T03:09:26.635Z,42.55
2019-03-23T03:11:55.968Z,43.48
2019-03-23T03:14:25.279Z,43.30
2019-03-23T03:16:55.661Z,44.85
2019-03-23T03:19:25.359Z,44.18
2019-03-23T03:21:54.681Z,43.17
2019-03-23T03:24:23.986Z,42.90
2019-03-23T03:26:53.327Z,44.85
2019-03-23T03:29:22.627Z,44.83
2019-03-23T03:31:52.268Z,40.33
2019-03-23T03:34:22.019Z,46.08
2019-03-23T03:36:51.326Z,43.60
2019-03-23T03:39:20.633Z,45.00
2019-03-23T03:41:49.985Z,43.87
2019-03-23T03:44:19.323Z,45.83
2019-03-23T03:46:48.609Z,44.50
2019-03-23T03:49:17.969Z,45.80
2019-03-23T03:51:47.281Z,44.70
2019-03-23T03:54:16.586Z,43.55
2019-03-23T03:56:45.964Z,44.20
2019-03-23T03:59:15.270Z,44.27
2019-03-23T04:01:45.241Z,41.95
2019-03-23T04:04:14.597Z,43.28
2019-03-23T04:06:43.903Z,43.83
2019-03-23T04:09:13.215Z,44.88
2019-03-23T04:11:42.574Z,44.60
2019-03-23T04:14:12.208Z,42.10
2019-03-23T04:16:41.514Z,43.33
2019-03-23T04:19:10.856Z,44.67
2019-03-23T04:21:40.171Z,41.13
2019-03-23T04:24:09.475Z,41.13
2019-03-23T04:26:39.493Z,39.15
2019-03-23T04:29:09.009Z,41.05
2019-03-23T04:31:38.310Z,40.90
2019-03-23T04:34:07.645Z,40.48
2019-03-23T04:36:36.944Z,38.90
2019-03-23T04:39:07.015Z,39.50
2019-03-23T04:41:36.365Z,38.70
2019-03-23T04:44:05.662Z,37.80
2019-03-23T04:46:34.951Z,38.83
2019-03-23T04:49:04.390Z,38.15
2019-03-23T04:51:33.689Z,38.90
2019-03-23T04:54:03.017Z,38.20
2019-03-23T04:56:32.338Z,37.90
2019-03-23T04:59:01.635Z,37.10
2019-03-23T05:01:30.935Z,38.53
2019-03-23T05:04:00.291Z,36.77
2019-03-23T05:06:29.587Z,34.43
2019-03-23T05:08:58.886Z,38.40
2019-03-23T05:11:28.246Z,37.38
2019-03-23T05:13:57.545Z,36.15
2019-03-23T05:16:27.109Z,37.28
2019-03-23T05:18:57.416Z,35.17
2019-03-23T05:21:26.719Z,36.03
2019-03-23T05:23:56.014Z,36.30
2019-03-23T05:26:25.359Z,37.08
2019-03-23T05:28:55.010Z,36.77
2019-03-23T05:31:24.393Z,35.92
2019-03-23T05:33:53.743Z,35.92
2019-03-23T05:36:23.908Z,35.75
2019-03-23T05:38:53.209Z,34.15
2019-03-23T05:41:22.563Z,34.35
2019-03-23T05:43:51.867Z,34.85
2019-03-23T05:46:21.187Z,36.08
2019-03-23T05:48:50.553Z,35.38
2019-03-23T05:51:19.849Z,37.33
2019-03-23T05:53:49.160Z,37.42
2019-03-23T05:56:18.488Z,36.98
2019-03-23T05:58:47.791Z,38.15
2019-03-23T06:01:17.093Z,37.05
2019-03-23T06:03:46.450Z,36.08
2019-03-23T06:06:15.747Z,37.80
2019-03-23T06:08:54.521Z,36.90
2019-03-23T06:11:16.398Z,37.28
2019-03-23T06:13:48.862Z,36.53
2019-03-23T06:16:18.473Z,36.75
2019-03-23T06:18:47.823Z,36.23
2019-03-23T06:21:17.200Z,36.10
2019-03-23T06:23:46.506Z,34.92
2019-03-23T06:26:16.013Z,36.35
2019-03-23T06:28:45.313Z,36.08
2019-03-23T06:31:14.626Z,36.68
2019-03-23T06:33:43.972Z,34.10
2019-03-23T06:36:13.282Z,36.73
2019-03-23T06:38:42.581Z,36.20
2019-03-23T06:41:11.926Z,34.75
2019-03-23T06:43:41.224Z,35.65
2019-03-23T06:46:10.538Z,33.90
2019-03-23T06:48:39.875Z,36.95
2019-03-23T06:51:09.179Z,34.48
2019-03-23T06:53:38.475Z,35.13
2019-03-23T06:56:07.819Z,34.30
2019-03-23T06:58:38.646Z,35.98
2019-03-23T07:01:08.328Z,35.95
2019-03-23T07:03:37.679Z,34.30
2019-03-23T07:06:06.974Z,35.10
2019-03-23T07:08:36.271Z,34.35
2019-03-23T07:11:05.617Z,34.73
2019-03-23T07:13:34.907Z,34.65
2019-03-23T07:16:04.216Z,32.85
2019-03-23T07:18:33.563Z,34.20
2019-03-23T07:21:02.857Z,34.48
2019-03-23T07:23:32.154Z,34.25
2019-03-23T07:26:01.661Z,33.65
2019-03-23T07:28:30.967Z,34.08
2019-03-23T07:34:48.503Z,35.08
2019-03-23T07:37:17.802Z,33.23
2019-03-23T07:39:47.100Z,34.45
2019-03-23T07:42:49.565Z,32.35
2019-03-23T07:45:18.931Z,32.40
2019-03-23T07:47:48.227Z,32.85
2019-03-23T07:50:17.639Z,33.42
2019-03-23T07:52:49.701Z,32.85
2019-03-23T07:55:19.016Z,33.38
2019-03-23T07:57:49.267Z,31.52
2019-03-23T08:00:21.445Z,31.90
2019-03-23T08:02:50.740Z,30.85
2019-03-23T08:05:20.126Z,31.60
2019-03-23T08:07:49.410Z,35.88
2019-03-23T08:10:33.095Z,31.10
2019-03-23T08:13:02.776Z,31.50
2019-03-23T08:15:32.159Z,31.90
2019-03-23T08:18:01.501Z,32.38
2019-03-23T08:20:30.848Z,31.37
2019-03-23T08:23:03.084Z,32.73
2019-03-23T08:25:32.413Z,32.23
2019-03-23T08:28:01.717Z,30.52
2019-03-23T08:30:31.012Z,32.13
2019-03-23T08:36:47.525Z,30.55
2019-03-23T08:39:16.838Z,29.18
2019-03-23T08:41:46.526Z,28.55
2019-03-23T08:44:15.822Z,29.90
2019-03-23T08:46:46.358Z,28.15
2019-03-23T08:49:15.724Z,29.07
2019-03-23T08:51:45.082Z,29.55
2019-03-23T08:54:14.387Z,28.92
2019-03-23T08:56:43.692Z,28.47
2019-03-23T08:59:13.053Z,30.60
2019-03-23T09:01:42.357Z,30.30
2019-03-23T09:04:11.660Z,28.05
2019-03-23T09:06:41.003Z,28.80
2019-03-23T09:09:10.309Z,29.60
2019-03-23T09:11:39.701Z,29.00
2019-03-23T09:14:09.056Z,30.10
2019-03-23T09:16:38.358Z,30.15
2019-03-23T09:19:07.681Z,28.70
2019-03-23T09:21:37.035Z,29.60
2019-03-23T09:24:06.432Z,26.80
2019-03-23T09:26:35.753Z,27.77
2019-03-23T09:29:05.119Z,29.25
2019-03-23T09:31:34.425Z,28.10
2019-03-23T09:34:03.738Z,28.87
2019-03-23T09:36:33.114Z,29.67
2019-03-23T09:39:02.450Z,30.27
2019-03-23T09:41:31.755Z,29.20
2019-03-23T09:44:02.798Z,28.80
2019-03-23T09:46:32.136Z,31.02
2019-03-23T09:49:01.424Z,29.50
2019-03-23T09:51:30.795Z,30.55
2019-03-23T09:54:00.113Z,30.15
2019-03-23T09:56:29.436Z,30.15
2019-03-23T09:58:58.814Z,29.27
2019-03-23T10:01:28.120Z,29.18
2019-03-23T10:03:57.468Z,30.17
2019-03-23T10:06:26.812Z,28.30
2019-03-23T10:08:56.124Z,29.42
2019-03-23T10:11:25.432Z,30.95
2019-03-23T10:13:55.081Z,31.50
2019-03-23T10:16:24.395Z,31.17
2019-03-23T10:18:53.721Z,29.90
2019-03-23T10:21:23.402Z,30.17
2019-03-23T10:23:54.632Z,30.92
2019-03-23T10:26:23.944Z,28.25
2019-03-23T10:28:53.333Z,28.80
2019-03-23T10:31:22.632Z,29.75
2019-03-23T10:33:51.938Z,27.98
2019-03-23T10:36:21.313Z,30.50
2019-03-23T10:38:50.693Z,30.82
2019-03-23T10:41:20.005Z,30.00
2019-03-23T10:43:49.370Z,31.97
2019-03-23T10:46:18.698Z,32.67
2019-03-23T10:48:48.020Z,29.52
2019-03-23T10:51:17.383Z,30.55
2019-03-23T10:53:46.709Z,28.95
2019-03-23T10:56:16.018Z,30.20
2019-03-23T10:58:45.388Z,26.90
2019-03-23T11:01:14.697Z,29.45
2019-03-23T11:03:43.999Z,30.20
2019-03-23T11:06:13.428Z,28.57
2019-03-23T11:12:42.861Z,29.10
2019-03-23T11:15:12.642Z,28.05
2019-03-23T11:17:41.942Z,29.87
2019-03-23T11:20:14.091Z,30.02
2019-03-23T11:22:43.447Z,30.80
2019-03-23T11:25:13.610Z,31.05
2019-03-23T11:27:43.005Z,29.63
2019-03-23T11:30:14.898Z,32.05
2019-03-23T11:32:44.896Z,30.52
2019-03-23T11:35:14.663Z,31.30
2019-03-23T11:37:44.251Z,29.55
2019-03-23T11:40:13.933Z,30.68
2019-03-23T11:42:49.684Z,32.03
2019-03-23T11:45:15.968Z,31.70
2019-03-23T11:47:45.368Z,31.93
2019-03-23T11:50:14.799Z,32.78
2019-03-23T11:52:44.397Z,32.20
2019-03-23T11:55:14.189Z,31.42
2019-03-23T11:57:43.524Z,32.10
2019-03-23T12:00:15.786Z,32.95
2019-03-23T12:02:45.097Z,32.50
2019-03-23T12:05:15.351Z,31.80
2019-03-23T12:07:45.198Z,32.05
2019-03-23T12:10:15.035Z,32.03
2019-03-23T12:12:44.445Z,33.42
2019-03-23T12:15:14.590Z,32.17
2019-03-23T12:17:43.892Z,33.28
2019-03-23T12:20:13.902Z,31.68
2019-03-23T12:22:43.278Z,32.25
2019-03-23T12:25:12.728Z,32.45
2019-03-23T12:27:43.059Z,32.48
2019-03-23T12:30:16.541Z,33.55
2019-03-23T12:32:45.917Z,33.38
2019-03-23T12:35:15.278Z,33.63
2019-03-23T12:37:44.586Z,34.10
2019-03-23T12:40:14.929Z,33.65
2019-03-23T12:42:44.285Z,32.38
2019-03-23T12:45:13.936Z,31.87
2019-03-23T12:47:43.243Z,34.00
2019-03-23T12:50:13.706Z,34.65
2019-03-23T12:52:43.017Z,34.20
2019-03-23T12:55:12.698Z,34.65
2019-03-23T12:57:42.061Z,39.33
2019-03-23T13:00:19.521Z,34.70
2019-03-23T13:02:48.875Z,35.15
2019-03-23T13:05:18.196Z,33.65
2019-03-23T13:07:47.497Z,34.48
2019-03-23T13:10:16.930Z,34.55
2019-03-23T13:12:46.235Z,34.70
2019-03-23T13:15:16.987Z,35.25
2019-03-23T13:17:46.398Z,35.15
2019-03-23T13:20:16.858Z,33.55
2019-03-23T13:22:46.112Z,34.53
2019-03-23T13:25:15.478Z,33.83
2019-03-23T13:27:45.021Z,33.10
2019-03-23T13:30:18.593Z,33.30
2019-03-23T13:32:48.223Z,33.48
2019-03-23T13:35:17.532Z,34.03
2019-03-23T13:37:46.876Z,33.67
2019-03-23T13:40:16.294Z,33.20
2019-03-23T13:42:45.598Z,33.60
2019-03-23T13:45:15.148Z,34.18
2019-03-23T13:47:44.507Z,32.85
2019-03-23T13:50:15.661Z,32.90
2019-03-23T13:52:44.980Z,33.28
2019-03-23T13:55:29.991Z,33.65
2019-03-23T13:58:14.217Z,34.18
2019-03-23T14:00:43.741Z,34.35
2019-03-23T14:03:13.536Z,32.78
2019-03-23T14:05:43.133Z,34.45
2019-03-23T14:08:12.496Z,35.55
2019-03-23T14:10:41.855Z,35.75
2019-03-23T14:13:11.156Z,35.70
2019-03-23T14:15:40.515Z,35.13
2019-03-23T14:18:09.827Z,34.25
2019-03-23T14:20:39.136Z,35.85
2019-03-23T14:23:08.478Z,35.17
2019-03-23T14:26:32.467Z,35.35
2019-03-23T14:29:01.812Z,36.08
2019-03-23T14:31:31.115Z,34.27
2019-03-23T14:34:00.439Z,35.28
2019-03-23T14:36:29.847Z,36.70
2019-03-23T14:38:59.186Z,34.03
2019-03-23T14:41:28.489Z,36.55
2019-03-23T14:43:57.878Z,36.58
2019-03-23T14:47:30.579Z,36.00
2019-03-23T14:49:59.953Z,37.63
2019-03-23T14:52:29.276Z,37.00
2019-03-23T14:54:58.579Z,36.05
2019-03-23T14:57:27.939Z,35.95
2019-03-23T14:59:57.246Z,35.38
2019-03-23T15:02:26.566Z,33.88
2019-03-23T15:04:55.934Z,35.10
2019-03-23T15:07:25.240Z,36.03
2019-03-23T15:09:54.540Z,36.95
2019-03-23T15:12:23.919Z,35.25
2019-03-23T15:14:53.224Z,36.35
2019-03-23T15:17:22.831Z,36.00
2019-03-23T15:19:52.550Z,36.10
2019-03-23T15:22:21.889Z,35.00
2019-03-23T15:28:39.444Z,34.55
2019-03-23T15:31:08.760Z,35.58
2019-03-23T15:33:38.061Z,35.13
2019-03-23T15:36:07.928Z,35.48
2019-03-23T15:38:37.271Z,34.23
2019-03-23T15:41:06.811Z,35.78
2019-03-23T15:43:36.149Z,37.20
2019-03-23T15:46:05.535Z,35.40
2019-03-23T15:48:34.807Z,35.73
2019-03-23T15:51:04.170Z,36.15
2019-03-23T15:53:33.470Z,35.92
2019-03-23T15:56:02.856Z,36.53
2019-03-23T15:58:32.239Z,36.35
2019-03-23T16:01:01.826Z,37.85
2019-03-23T16:03:31.133Z,36.93
2019-03-23T16:06:00.502Z,37.93
2019-03-23T16:08:30.041Z,36.38
2019-03-23T16:10:59.646Z,37.83
2019-03-23T16:13:31.597Z,36.68
2019-03-23T16:16:00.907Z,37.48
2019-03-23T16:18:30.220Z,37.17
2019-03-23T16:20:59.575Z,36.65
2019-03-23T16:23:28.889Z,37.48
2019-03-23T16:25:58.190Z,35.92
2019-03-23T16:28:27.566Z,37.10
2019-03-23T16:30:56.872Z,35.00
2019-03-23T16:33:26.179Z,36.88
2019-03-23T16:35:55.527Z,37.95
2019-03-23T16:38:25.119Z,35.60
2019-03-23T16:40:54.492Z,34.60
2019-03-23T16:43:23.847Z,36.60
2019-03-23T16:45:53.218Z,36.08
2019-03-23T16:48:22.522Z,36.42
2019-03-23T16:50:51.864Z,39.10
2019-03-23T16:53:21.168Z,35.90
2019-03-23T16:55:50.472Z,35.08
2019-03-23T16:58:22.513Z,33.65
2019-03-23T17:00:51.819Z,33.88
2019-03-23T17:03:21.129Z,38.02
2019-03-23T17:05:50.487Z,35.85
2019-03-23T17:08:19.780Z,35.33
2019-03-23T17:10:49.091Z,36.05
2019-03-23T17:13:18.447Z,36.30
2019-03-23T17:15:47.753Z,35.83
2019-03-23T17:18:17.124Z,35.55
2019-03-23T17:20:46.469Z,33.55
2019-03-23T17:23:15.775Z,34.43
2019-03-23T17:25:45.074Z,34.18
2019-03-23T17:28:14.434Z,35.03
2019-03-23T17:30:43.740Z,34.78
2019-03-23T17:33:13.291Z,35.35
2019-03-23T17:35:42.650Z,36.50
2019-03-23T17:38:15.269Z,33.83
2019-03-23T17:40:44.801Z,35.10
2019-03-23T17:43:14.486Z,34.60
2019-03-23T17:45:43.785Z,35.43
2019-03-23T17:48:13.391Z,36.13
2019-03-23T17:50:42.750Z,34.90
2019-03-23T17:53:12.062Z,35.20
2019-03-23T17:55:41.370Z,34.98
2019-03-23T17:58:10.760Z,33.67
2019-03-23T18:00:40.048Z,34.88
2019-03-23T18:03:09.356Z,33.75
2019-03-23T18:05:39.010Z,35.43
2019-03-23T18:08:08.321Z,32.78
2019-03-23T18:10:37.622Z,34.20
2019-03-23T18:13:16.152Z,35.43
2019-03-23T18:15:38.002Z,34.00
2019-03-23T18:18:07.561Z,34.18
2019-03-23T18:20:36.902Z,33.55
2019-03-23T18:23:06.347Z,32.40
2019-03-23T18:25:35.653Z,31.70
2019-03-23T18:28:05.089Z,29.07
2019-03-23T18:30:41.046Z,27.35
2019-03-23T18:33:10.459Z,23.18
2019-03-23T18:35:39.910Z,17.05
2019-03-23T18:38:09.353Z,16.20
2019-03-23T18:40:39.215Z,14.50
2019-03-23T18:43:08.906Z,15.43
2019-03-23T18:45:38.272Z,15.08
2019-03-23T18:48:07.953Z,14.50
2019-03-23T18:50:37.255Z,14.70
2019-03-23T18:53:06.555Z,14.30
2019-03-23T18:55:36.051Z,13.78
2019-03-23T18:58:05.417Z,14.28
2019-03-23T19:00:42.803Z,14.85
2019-03-23T19:03:12.822Z,14.63
2019-03-23T19:05:44.824Z,14.87
2019-03-23T19:08:14.156Z,15.05
2019-03-23T19:10:43.464Z,15.68
2019-03-23T19:13:13.048Z,16.37
2019-03-23T19:15:42.387Z,15.00
2019-03-23T19:18:11.684Z,14.73
2019-03-23T19:20:41.255Z,15.93
2019-03-23T19:23:10.874Z,16.32
2019-03-23T19:25:40.172Z,17.15
2019-03-23T19:28:09.469Z,17.10
2019-03-23T19:30:38.864Z,18.17
2019-03-23T19:33:08.161Z,17.02
2019-03-23T19:35:37.459Z,18.10
2019-03-23T19:38:06.813Z,17.82
2019-03-23T19:40:36.121Z,17.52
2019-03-23T19:43:05.491Z,17.75
2019-03-23T19:45:34.832Z,16.17
2019-03-23T19:48:05.294Z,16.95
2019-03-23T19:50:34.605Z,17.90
2019-03-23T19:53:04.328Z,16.57
2019-03-23T19:55:33.626Z,16.65
2019-03-23T19:58:02.931Z,15.40
2019-03-23T20:00:32.278Z,16.45
2019-03-23T20:03:01.580Z,17.27
2019-03-23T20:05:30.950Z,17.48
2019-03-23T20:08:00.304Z,16.30
2019-03-23T20:10:32.509Z,17.98
2019-03-23T20:13:01.818Z,19.48
2019-03-23T20:15:31.233Z,17.45
2019-03-23T20:18:00.603Z,17.30
2019-03-23T20:20:29.901Z,16.50
2019-03-23T20:22:59.246Z,16.90
2019-03-23T20:25:28.547Z,17.52
2019-03-23T20:27:57.923Z,17.73
2019-03-23T20:30:27.266Z,16.52
2019-03-23T20:32:56.568Z,16.07
2019-03-23T20:35:25.871Z,17.10
2019-03-23T20:37:55.216Z,16.32
2019-03-23T20:40:24.510Z,16.40
2019-03-23T20:42:53.806Z,17.20
2019-03-23T20:45:29.703Z,16.93
2019-03-23T20:47:59.375Z,17.62
2019-03-23T20:50:28.778Z,16.87
2019-03-23T20:52:58.200Z,16.35
2019-03-23T20:59:27.459Z,15.88
2019-03-23T21:01:56.817Z,15.70
2019-03-23T21:04:26.139Z,14.90
2019-03-23T21:06:55.510Z,15.35
2019-03-23T21:09:24.811Z,15.15
2019-03-23T21:11:54.113Z,14.50
2019-03-23T21:14:23.476Z,15.30
2019-03-23T21:16:52.765Z,15.60
2019-03-23T21:19:22.066Z,15.32
2019-03-23T21:21:51.417Z,16.62
2019-03-23T21:24:20.723Z,15.83
2019-03-23T21:26:50.022Z,16.20
2019-03-23T21:29:19.392Z,15.50
2019-03-23T21:31:48.680Z,15.88
2019-03-23T21:34:18.004Z,14.95
2019-03-23T21:36:47.328Z,15.45
2019-03-23T21:39:16.617Z,16.32
2019-03-23T21:41:45.917Z,16.05
2019-03-23T21:44:15.268Z,15.38
2019-03-23T21:47:27.053Z,14.43
2019-03-23T21:49:56.706Z,13.48
2019-03-23T21:52:26.009Z,13.70
2019-03-23T21:54:55.302Z,13.35
2019-03-23T21:57:24.651Z,12.73
2019-03-23T21:59:53.949Z,12.65
2019-03-23T22:02:23.250Z,11.63
2019-03-23T22:04:52.594Z,10.50
2019-03-23T22:07:22.166Z,10.95
2019-03-23T22:09:51.423Z,10.43
2019-03-23T22:12:22.312Z,10.40
2019-03-23T22:14:51.687Z,10.53
2019-03-23T22:17:20.972Z,10.25
2019-03-23T22:19:50.323Z,10.78
2019-03-23T22:22:19.645Z,10.15
2019-03-23T22:24:48.940Z,9.40
2019-03-23T22:27:19.317Z,9.60
2019-03-23T22:29:48.878Z,9.48
2019-03-23T22:32:18.158Z,8.93
2019-03-23T22:34:49.326Z,8.85
2019-03-23T22:37:18.518Z,9.25
2019-03-23T22:39:48.062Z,8.38
2019-03-23T22:42:17.638Z,8.63
2019-03-23T22:44:52.544Z,8.85
2019-03-23T22:47:17.954Z,7.80
2019-03-23T22:49:47.308Z,7.85
2019-03-23T22:52:16.599Z,6.90
2019-03-23T22:54:45.893Z,7.33
2019-03-23T22:57:15.471Z,6.87
2019-03-23T22:59:44.774Z,7.58
2019-03-23T23:02:14.122Z,6.95
2019-03-23T23:04:43.469Z,7.35
2019-03-23T23:07:12.771Z,6.50
2019-03-23T23:09:42.059Z,6.87
2019-03-23T23:12:11.395Z,6.47
2019-03-23T23:14:40.688Z,7.10
2019-03-23T23:17:09.969Z,7.42
2019-03-23T23:19:39.785Z,7.28
2019-03-23T23:22:09.082Z,6.65
2019-03-23T23:24:38.372Z,6.08
2019-03-23T23:27:07.712Z,5.72
2019-03-23T23:29:37.015Z,6.55
2019-03-23T23:32:06.294Z,5.97
2019-03-23T23:34:35.894Z,6.08
2019-03-23T23:37:05.281Z,6.45
2019-03-23T23:39:34.576Z,6.37
2019-03-23T23:42:04.538Z,6.67
2019-03-23T23:44:33.851Z,6.45
2019-03-23T23:47:06.302Z,6.85
2019-03-23T23:49:35.662Z,6.08
2019-03-23T23:52:05.041Z,6.35
2019-03-23T23:54:34.321Z,6.90
2019-03-23T23:57:03.680Z,7.30
2019-03-23T23:59:32.979Z,6.25
